Saitama, Japan
Current Conditions -  °F | °C
As of 10:58 AM on Friday 21 Nov 2014 (Local Time) from RJTY Reporting Station
Clear Clear  
Wind Chill: 56°   Ceiling: Unl
Heat Index: 56°   Visibility: 10mi
Dew Point: 42°   Wind: 6mph
Humidity: 60%   Direction: 20°NNE
Pressure: 30.37"   Gusts: NA
Location:  35.87°N, 139.65°E
Report Text: RJTY 210158Z AUTO 02005KT 10SM CLR 13/06 A3037 RMK AO2 SLP291 T01320057
Loading
Personal Weather Stations






























Interactive Weather Map New forecast layout! Learn more

10-Day Weather Forecast

Advertisements
Track Severe Weather on mobile